sensor_id;sensor_type;location;lat;lon;timestamp;P1;durP1;ratioP1;P2;durP2;ratioP2
40501;SDS011;29631;49.168;9.848;2023-07-31T00:00:30;1.17;;;1.15;;
40501;SDS011;29631;49.168;9.848;2023-07-31T00:02:56;2.78;;;1.25;;
40501;SDS011;29631;49.168;9.848;2023-07-31T00:05:21;2.33;;;1.40;;
40501;SDS011;29631;49.168;9.848;2023-07-31T00:07:47;3.35;;;1.65;;
40501;SDS011;29631;49.168;9.848;2023-07-31T00:10:13;2.53;;;1.50;;
40501;SDS011;29631;49.168;9.848;2023-07-31T00:12:39;1.35;;;1.25;;
40501;SDS011;29631;49.168;9.848;2023-07-31T00:15:10;1.50;;;1.40;;
40501;SDS011;29631;49.168;9.848;2023-07-31T00:17:37;1.48;;;1.38;;
40501;SDS011;29631;49.168;9.848;2023-07-31T00:20:02;1.75;;;1.27;;
40501;SDS011;29631;49.168;9.848;2023-07-31T00:22:29;1.35;;;1.30;;
40501;SDS011;29631;49.168;9.848;2023-07-31T00:24:55;1.45;;;1.35;;
40501;SDS011;29631;49.168;9.848;2023-07-31T00:27:22;1.65;;;1.55;;
40501;SDS011;29631;49.168;9.848;2023-07-31T00:29:48;1.35;;;1.25;;
40501;SDS011;29631;49.168;9.848;2023-07-31T00:32:13;1.60;;;1.50;;
40501;SDS011;29631;49.168;9.848;2023-07-31T00:34:39;1.40;;;1.30;;
40501;SDS011;29631;49.168;9.848;2023-07-31T00:37:05;2.55;;;1.55;;
40501;SDS011;29631;49.168;9.848;2023-07-31T00:39:33;1.30;;;1.30;;
40501;SDS011;29631;49.168;9.848;2023-07-31T00:41:59;1.50;;;1.40;;
40501;SDS011;29631;49.168;9.848;2023-07-31T00:44:25;1.60;;;1.35;;
40501;SDS011;29631;49.168;9.848;2023-07-31T00:46:51;0.95;;;0.95;;
40501;SDS011;29631;49.168;9.848;2023-07-31T00:49:17;1.42;;;1.35;;
40501;SDS011;29631;49.168;9.848;2023-07-31T00:51:43;2.60;;;1.45;;
40501;SDS011;29631;49.168;9.848;2023-07-31T00:54:09;2.88;;;1.40;;
40501;SDS011;29631;49.168;9.848;2023-07-31T00:56:36;1.50;;;1.40;;
40501;SDS011;29631;49.168;9.848;2023-07-31T00:59:02;1.92;;;1.25;;
40501;SDS011;29631;49.168;9.848;2023-07-31T01:01:28;3.72;;;1.50;;
40501;SDS011;29631;49.168;9.848;2023-07-31T01:03:54;1.50;;;1.40;;
40501;SDS011;29631;49.168;9.848;2023-07-31T01:09:11;2.15;;;1.40;;
40501;SDS011;29631;49.168;9.848;2023-07-31T01:12:17;1.30;;;1.10;;
40501;SDS011;29631;49.168;9.848;2023-07-31T01:14:51;2.35;;;1.08;;
40501;SDS011;29631;49.168;9.848;2023-07-31T01:17:30;1.20;;;1.20;;
40501;SDS011;29631;49.168;9.848;2023-07-31T01:19:58;1.48;;;1.27;;
40501;SDS011;29631;49.168;9.848;2023-07-31T01:27:58;1.95;;;1.33;;
40501;SDS011;29631;49.168;9.848;2023-07-31T01:30:31;2.13;;;1.35;;
40501;SDS011;29631;49.168;9.848;2023-07-31T01:33:00;1.23;;;1.13;;
40501;SDS011;29631;49.168;9.848;2023-07-31T01:35:31;3.67;;;1.98;;
40501;SDS011;29631;49.168;9.848;2023-07-31T01:37:59;3.40;;;1.30;;
40501;SDS011;29631;49.168;9.848;2023-07-31T01:40:25;1.50;;;1.40;;
40501;SDS011;29631;49.168;9.848;2023-07-31T01:42:50;3.17;;;1.50;;
40501;SDS011;29631;49.168;9.848;2023-07-31T01:45:16;1.80;;;1.30;;
40501;SDS011;29631;49.168;9.848;2023-07-31T01:47:42;1.50;;;1.40;;
40501;SDS011;29631;49.168;9.848;2023-07-31T01:50:08;1.48;;;1.38;;
40501;SDS011;29631;49.168;9.848;2023-07-31T01:52:34;2.50;;;1.80;;
40501;SDS011;29631;49.168;9.848;2023-07-31T01:55:00;1.55;;;1.45;;
40501;SDS011;29631;49.168;9.848;2023-07-31T01:57:26;2.80;;;1.70;;
40501;SDS011;29631;49.168;9.848;2023-07-31T01:59:52;3.45;;;1.48;;
40501;SDS011;29631;49.168;9.848;2023-07-31T02:02:20;2.45;;;1.60;;
40501;SDS011;29631;49.168;9.848;2023-07-31T02:04:47;1.73;;;1.63;;
40501;SDS011;29631;49.168;9.848;2023-07-31T02:07:13;3.17;;;1.45;;
40501;SDS011;29631;49.168;9.848;2023-07-31T02:09:39;1.70;;;1.17;;
40501;SDS011;29631;49.168;9.848;2023-07-31T02:12:05;1.55;;;1.38;;
40501;SDS011;29631;49.168;9.848;2023-07-31T02:14:33;2.13;;;1.67;;
40501;SDS011;29631;49.168;9.848;2023-07-31T02:16:59;2.42;;;1.38;;
40501;SDS011;29631;49.168;9.848;2023-07-31T02:19:25;1.70;;;1.60;;
40501;SDS011;29631;49.168;9.848;2023-07-31T02:21:51;2.55;;;1.13;;
40501;SDS011;29631;49.168;9.848;2023-07-31T02:24:17;1.50;;;1.40;;
40501;SDS011;29631;49.168;9.848;2023-07-31T02:26:42;1.33;;;1.23;;
40501;SDS011;29631;49.168;9.848;2023-07-31T02:29:08;1.73;;;1.58;;
40501;SDS011;29631;49.168;9.848;2023-07-31T02:31:34;2.05;;;1.45;;
40501;SDS011;29631;49.168;9.848;2023-07-31T02:34:00;4.35;;;1.58;;
40501;SDS011;29631;49.168;9.848;2023-07-31T02:36:25;2.22;;;1.45;;
40501;SDS011;29631;49.168;9.848;2023-07-31T02:38:51;2.35;;;1.60;;
40501;SDS011;29631;49.168;9.848;2023-07-31T02:41:17;2.70;;;1.50;;
40501;SDS011;29631;49.168;9.848;2023-07-31T02:43:42;1.35;;;1.25;;
40501;SDS011;29631;49.168;9.848;2023-07-31T02:46:08;1.95;;;1.33;;
40501;SDS011;29631;49.168;9.848;2023-07-31T02:48:34;1.83;;;1.50;;
40501;SDS011;29631;49.168;9.848;2023-07-31T02:51:00;2.45;;;1.38;;
40501;SDS011;29631;49.168;9.848;2023-07-31T02:53:26;1.17;;;1.10;;
40501;SDS011;29631;49.168;9.848;2023-07-31T02:55:51;1.40;;;1.30;;
40501;SDS011;29631;49.168;9.848;2023-07-31T02:58:17;2.78;;;1.40;;
40501;SDS011;29631;49.168;9.848;2023-07-31T03:00:43;1.83;;;1.50;;
40501;SDS011;29631;49.168;9.848;2023-07-31T03:03:09;2.03;;;1.58;;
40501;SDS011;29631;49.168;9.848;2023-07-31T03:05:35;1.45;;;1.33;;
40501;SDS011;29631;49.168;9.848;2023-07-31T03:08:01;1.20;;;1.10;;
40501;SDS011;29631;49.168;9.848;2023-07-31T03:10:27;1.40;;;1.30;;
40501;SDS011;29631;49.168;9.848;2023-07-31T03:12:52;3.25;;;1.60;;
40501;SDS011;29631;49.168;9.848;2023-07-31T03:15:18;1.48;;;1.38;;
40501;SDS011;29631;49.168;9.848;2023-07-31T03:17:44;1.33;;;1.30;;
40501;SDS011;29631;49.168;9.848;2023-07-31T03:20:09;3.13;;;1.63;;
40501;SDS011;29631;49.168;9.848;2023-07-31T03:22:36;2.63;;;1.50;;
40501;SDS011;29631;49.168;9.848;2023-07-31T03:25:05;2.58;;;1.45;;
40501;SDS011;29631;49.168;9.848;2023-07-31T03:27:31;2.40;;;1.65;;
40501;SDS011;29631;49.168;9.848;2023-07-31T03:29:57;1.73;;;1.42;;
40501;SDS011;29631;49.168;9.848;2023-07-31T03:32:24;1.67;;;1.30;;
40501;SDS011;29631;49.168;9.848;2023-07-31T03:34:50;1.33;;;1.33;;
40501;SDS011;29631;49.168;9.848;2023-07-31T03:37:15;1.38;;;1.27;;
40501;SDS011;29631;49.168;9.848;2023-07-31T03:39:41;1.48;;;1.38;;
40501;SDS011;29631;49.168;9.848;2023-07-31T03:42:07;2.00;;;1.50;;
40501;SDS011;29631;49.168;9.848;2023-07-31T03:44:32;1.77;;;1.42;;
40501;SDS011;29631;49.168;9.848;2023-07-31T03:46:58;2.22;;;1.60;;
40501;SDS011;29631;49.168;9.848;2023-07-31T03:49:24;1.60;;;1.50;;
40501;SDS011;29631;49.168;9.848;2023-07-31T03:51:50;1.67;;;1.58;;
40501;SDS011;29631;49.168;9.848;2023-07-31T03:54:15;2.60;;;1.70;;
40501;SDS011;29631;49.168;9.848;2023-07-31T03:56:41;1.48;;;1.42;;
40501;SDS011;29631;49.168;9.848;2023-07-31T03:59:07;2.05;;;1.30;;
40501;SDS011;29631;49.168;9.848;2023-07-31T04:01:32;2.25;;;1.60;;
40501;SDS011;29631;49.168;9.848;2023-07-31T04:03:58;1.80;;;1.70;;
40501;SDS011;29631;49.168;9.848;2023-07-31T04:06:24;1.45;;;1.35;;
40501;SDS011;29631;49.168;9.848;2023-07-31T04:08:50;2.58;;;1.55;;
40501;SDS011;29631;49.168;9.848;2023-07-31T04:11:15;1.63;;;1.48;;
40501;SDS011;29631;49.168;9.848;2023-07-31T04:13:41;2.53;;;1.50;;
40501;SDS011;29631;49.168;9.848;2023-07-31T04:16:07;2.03;;;1.65;;
40501;SDS011;29631;49.168;9.848;2023-07-31T04:18:33;1.70;;;1.60;;
40501;SDS011;29631;49.168;9.848;2023-07-31T04:20:58;1.30;;;1.20;;
40501;SDS011;29631;49.168;9.848;2023-07-31T04:23:26;2.47;;;1.20;;
40501;SDS011;29631;49.168;9.848;2023-07-31T04:25:51;1.92;;;1.13;;
40501;SDS011;29631;49.168;9.848;2023-07-31T04:28:17;1.35;;;1.25;;
40501;SDS011;29631;49.168;9.848;2023-07-31T04:30:43;2.58;;;1.60;;
40501;SDS011;29631;49.168;9.848;2023-07-31T04:33:08;3.40;;;1.60;;
40501;SDS011;29631;49.168;9.848;2023-07-31T04:35:34;1.60;;;1.50;;
40501;SDS011;29631;49.168;9.848;2023-07-31T04:38:00;1.73;;;1.48;;
40501;SDS011;29631;49.168;9.848;2023-07-31T04:40:26;2.35;;;1.60;;
40501;SDS011;29631;49.168;9.848;2023-07-31T04:42:52;1.92;;;1.63;;
40501;SDS011;29631;49.168;9.848;2023-07-31T04:45:17;1.83;;;1.65;;
40501;SDS011;29631;49.168;9.848;2023-07-31T04:47:43;2.13;;;1.60;;
40501;SDS011;29631;49.168;9.848;2023-07-31T04:50:09;4.13;;;1.42;;
40501;SDS011;29631;49.168;9.848;2023-07-31T04:52:35;2.53;;;1.20;;
40501;SDS011;29631;49.168;9.848;2023-07-31T04:55:01;1.60;;;1.50;;
40501;SDS011;29631;49.168;9.848;2023-07-31T04:57:26;2.60;;;1.50;;
40501;SDS011;29631;49.168;9.848;2023-07-31T04:59:52;1.40;;;1.30;;
40501;SDS011;29631;49.168;9.848;2023-07-31T05:02:18;1.42;;;1.33;;
40501;SDS011;29631;49.168;9.848;2023-07-31T05:04:43;1.30;;;1.20;;
40501;SDS011;29631;49.168;9.848;2023-07-31T05:07:09;1.75;;;1.45;;
40501;SDS011;29631;49.168;9.848;2023-07-31T05:09:35;2.47;;;1.40;;
40501;SDS011;29631;49.168;9.848;2023-07-31T05:12:01;1.13;;;1.10;;
40501;SDS011;29631;49.168;9.848;2023-07-31T05:14:27;1.83;;;1.50;;
40501;SDS011;29631;49.168;9.848;2023-07-31T05:16:52;2.67;;;1.70;;
40501;SDS011;29631;49.168;9.848;2023-07-31T05:19:18;2.08;;;1.55;;
40501;SDS011;29631;49.168;9.848;2023-07-31T05:21:44;2.03;;;1.80;;
40501;SDS011;29631;49.168;9.848;2023-07-31T05:24:10;2.15;;;1.65;;
40501;SDS011;29631;49.168;9.848;2023-07-31T05:26:36;3.80;;;1.65;;
40501;SDS011;29631;49.168;9.848;2023-07-31T05:29:02;1.70;;;1.60;;
40501;SDS011;29631;49.168;9.848;2023-07-31T05:31:28;1.48;;;1.38;;
40501;SDS011;29631;49.168;9.848;2023-07-31T05:33:54;1.58;;;1.48;;
40501;SDS011;29631;49.168;9.848;2023-07-31T05:36:20;1.70;;;1.60;;
40501;SDS011;29631;49.168;9.848;2023-07-31T05:38:46;2.15;;;1.40;;
40501;SDS011;29631;49.168;9.848;2023-07-31T05:41:12;1.52;;;1.42;;
40501;SDS011;29631;49.168;9.848;2023-07-31T05:43:38;1.70;;;1.58;;
40501;SDS011;29631;49.168;9.848;2023-07-31T05:46:04;2.03;;;1.38;;
40501;SDS011;29631;49.168;9.848;2023-07-31T05:48:29;2.17;;;1.55;;
40501;SDS011;29631;49.168;9.848;2023-07-31T05:50:55;2.25;;;1.65;;
40501;SDS011;29631;49.168;9.848;2023-07-31T05:53:21;2.22;;;1.70;;
40501;SDS011;29631;49.168;9.848;2023-07-31T05:55:47;1.70;;;1.48;;
40501;SDS011;29631;49.168;9.848;2023-07-31T05:58:12;2.00;;;1.80;;
40501;SDS011;29631;49.168;9.848;2023-07-31T06:00:38;5.30;;;1.70;;
40501;SDS011;29631;49.168;9.848;2023-07-31T06:03:04;1.20;;;1.20;;
40501;SDS011;29631;49.168;9.848;2023-07-31T06:05:30;1.95;;;1.55;;
40501;SDS011;29631;49.168;9.848;2023-07-31T06:07:56;2.78;;;1.50;;
40501;SDS011;29631;49.168;9.848;2023-07-31T06:10:22;1.80;;;1.70;;
40501;SDS011;29631;49.168;9.848;2023-07-31T06:12:48;3.05;;;1.60;;
40501;SDS011;29631;49.168;9.848;2023-07-31T06:15:14;2.83;;;1.80;;
40501;SDS011;29631;49.168;9.848;2023-07-31T06:17:39;1.90;;;1.63;;
40501;SDS011;29631;49.168;9.848;2023-07-31T06:20:06;2.47;;;1.52;;
40501;SDS011;29631;49.168;9.848;2023-07-31T06:22:32;1.27;;;1.17;;
40501;SDS011;29631;49.168;9.848;2023-07-31T06:24:58;1.50;;;1.40;;
40501;SDS011;29631;49.168;9.848;2023-07-31T06:27:24;1.70;;;1.60;;
40501;SDS011;29631;49.168;9.848;2023-07-31T06:29:50;2.13;;;1.60;;
40501;SDS011;29631;49.168;9.848;2023-07-31T06:32:16;3.97;;;1.65;;
40501;SDS011;29631;49.168;9.848;2023-07-31T06:34:42;1.88;;;1.70;;
40501;SDS011;29631;49.168;9.848;2023-07-31T06:37:07;2.47;;;1.45;;
40501;SDS011;29631;49.168;9.848;2023-07-31T06:39:33;2.00;;;1.60;;
40501;SDS011;29631;49.168;9.848;2023-07-31T06:41:59;2.15;;;1.70;;
40501;SDS011;29631;49.168;9.848;2023-07-31T06:44:24;2.95;;;1.80;;
40501;SDS011;29631;49.168;9.848;2023-07-31T06:46:50;1.65;;;1.38;;
40501;SDS011;29631;49.168;9.848;2023-07-31T06:49:16;1.70;;;1.45;;
40501;SDS011;29631;49.168;9.848;2023-07-31T06:51:42;2.10;;;1.90;;
40501;SDS011;29631;49.168;9.848;2023-07-31T06:54:09;1.50;;;1.40;;
40501;SDS011;29631;49.168;9.848;2023-07-31T06:56:34;3.28;;;1.85;;
40501;SDS011;29631;49.168;9.848;2023-07-31T06:59:00;1.83;;;1.70;;
40501;SDS011;29631;49.168;9.848;2023-07-31T07:01:26;2.58;;;1.73;;
40501;SDS011;29631;49.168;9.848;2023-07-31T07:03:53;1.70;;;1.60;;
40501;SDS011;29631;49.168;9.848;2023-07-31T07:06:19;1.60;;;1.50;;
40501;SDS011;29631;49.168;9.848;2023-07-31T07:08:45;2.42;;;1.60;;
40501;SDS011;29631;49.168;9.848;2023-07-31T07:11:11;2.55;;;1.58;;
40501;SDS011;29631;49.168;9.848;2023-07-31T07:13:36;1.92;;;1.65;;
40501;SDS011;29631;49.168;9.848;2023-07-31T07:16:02;2.38;;;1.60;;
40501;SDS011;29631;49.168;9.848;2023-07-31T07:18:28;2.40;;;1.75;;
40501;SDS011;29631;49.168;9.848;2023-07-31T07:20:54;3.95;;;2.00;;
40501;SDS011;29631;49.168;9.848;2023-07-31T07:23:22;1.63;;;1.52;;
40501;SDS011;29631;49.168;9.848;2023-07-31T07:25:47;5.55;;;1.70;;
40501;SDS011;29631;49.168;9.848;2023-07-31T07:28:13;2.42;;;1.80;;
40501;SDS011;29631;49.168;9.848;2023-07-31T07:30:39;1.70;;;1.60;;
40501;SDS011;29631;49.168;9.848;2023-07-31T07:33:05;2.47;;;1.80;;
40501;SDS011;29631;49.168;9.848;2023-07-31T07:35:34;2.72;;;1.75;;
40501;SDS011;29631;49.168;9.848;2023-07-31T07:38:04;2.90;;;2.00;;
40501;SDS011;29631;49.168;9.848;2023-07-31T07:40:29;2.75;;;1.88;;
40501;SDS011;29631;49.168;9.848;2023-07-31T07:42:55;2.13;;;1.90;;
40501;SDS011;29631;49.168;9.848;2023-07-31T07:45:21;3.10;;;1.80;;
40501;SDS011;29631;49.168;9.848;2023-07-31T07:47:47;2.30;;;1.80;;
40501;SDS011;29631;49.168;9.848;2023-07-31T07:50:12;2.20;;;2.00;;
40501;SDS011;29631;49.168;9.848;2023-07-31T07:52:38;2.08;;;1.92;;
40501;SDS011;29631;49.168;9.848;2023-07-31T07:55:04;2.10;;;1.88;;
40501;SDS011;29631;49.168;9.848;2023-07-31T07:57:30;3.30;;;1.90;;
40501;SDS011;29631;49.168;9.848;2023-07-31T07:59:56;3.00;;;2.08;;
40501;SDS011;29631;49.168;9.848;2023-07-31T08:02:22;3.75;;;1.75;;
40501;SDS011;29631;49.168;9.848;2023-07-31T08:04:48;3.13;;;2.20;;
40501;SDS011;29631;49.168;9.848;2023-07-31T08:07:13;1.75;;;1.65;;
40501;SDS011;29631;49.168;9.848;2023-07-31T08:09:39;2.65;;;1.98;;
40501;SDS011;29631;49.168;9.848;2023-07-31T08:12:06;2.65;;;1.85;;
40501;SDS011;29631;49.168;9.848;2023-07-31T08:14:32;2.30;;;2.10;;
40501;SDS011;29631;49.168;9.848;2023-07-31T08:16:58;2.15;;;1.90;;
40501;SDS011;29631;49.168;9.848;2023-07-31T08:19:24;3.10;;;2.00;;
40501;SDS011;29631;49.168;9.848;2023-07-31T08:21:50;1.90;;;1.80;;
40501;SDS011;29631;49.168;9.848;2023-07-31T08:24:16;3.90;;;1.95;;
40501;SDS011;29631;49.168;9.848;2023-07-31T08:26:42;2.05;;;1.83;;
40501;SDS011;29631;49.168;9.848;2023-07-31T08:29:08;4.15;;;2.08;;
40501;SDS011;29631;49.168;9.848;2023-07-31T08:31:33;3.30;;;1.80;;
40501;SDS011;29631;49.168;9.848;2023-07-31T08:33:59;3.97;;;1.85;;
40501;SDS011;29631;49.168;9.848;2023-07-31T08:36:25;3.22;;;2.00;;
40501;SDS011;29631;49.168;9.848;2023-07-31T08:38:51;2.28;;;1.80;;
40501;SDS011;29631;49.168;9.848;2023-07-31T08:41:17;2.80;;;1.92;;
40501;SDS011;29631;49.168;9.848;2023-07-31T08:43:43;2.20;;;2.00;;
40501;SDS011;29631;49.168;9.848;2023-07-31T08:46:14;3.47;;;1.98;;
40501;SDS011;29631;49.168;9.848;2023-07-31T08:48:41;2.50;;;1.90;;
40501;SDS011;29631;49.168;9.848;2023-07-31T08:51:07;2.63;;;1.92;;
40501;SDS011;29631;49.168;9.848;2023-07-31T08:53:34;3.08;;;2.30;;
40501;SDS011;29631;49.168;9.848;2023-07-31T08:56:00;2.35;;;2.15;;
40501;SDS011;29631;49.168;9.848;2023-07-31T08:58:27;3.92;;;2.42;;
40501;SDS011;29631;49.168;9.848;2023-07-31T09:00:57;2.88;;;2.28;;
40501;SDS011;29631;49.168;9.848;2023-07-31T09:03:28;3.00;;;1.80;;
40501;SDS011;29631;49.168;9.848;2023-07-31T09:05:57;2.88;;;2.10;;
40501;SDS011;29631;49.168;9.848;2023-07-31T09:08:24;2.05;;;1.75;;
40501;SDS011;29631;49.168;9.848;2023-07-31T09:10:57;2.13;;;1.75;;
40501;SDS011;29631;49.168;9.848;2023-07-31T09:13:28;3.47;;;2.20;;
40501;SDS011;29631;49.168;9.848;2023-07-31T09:15:56;2.22;;;2.13;;
40501;SDS011;29631;49.168;9.848;2023-07-31T09:18:21;2.97;;;2.30;;
40501;SDS011;29631;49.168;9.848;2023-07-31T09:21:00;2.85;;;2.00;;
40501;SDS011;29631;49.168;9.848;2023-07-31T09:23:39;4.47;;;2.15;;
40501;SDS011;29631;49.168;9.848;2023-07-31T09:26:10;3.45;;;1.98;;
40501;SDS011;29631;49.168;9.848;2023-07-31T09:28:53;2.78;;;2.00;;
40501;SDS011;29631;49.168;9.848;2023-07-31T09:31:31;2.95;;;1.67;;
40501;SDS011;29631;49.168;9.848;2023-07-31T09:34:07;1.92;;;1.83;;
40501;SDS011;29631;49.168;9.848;2023-07-31T09:36:39;2.53;;;2.03;;
40501;SDS011;29631;49.168;9.848;2023-07-31T09:39:08;2.45;;;2.00;;
40501;SDS011;29631;49.168;9.848;2023-07-31T09:41:36;3.90;;;2.13;;
40501;SDS011;29631;49.168;9.848;2023-07-31T09:44:04;2.33;;;1.60;;
40501;SDS011;29631;49.168;9.848;2023-07-31T09:46:30;2.00;;;1.90;;
40501;SDS011;29631;49.168;9.848;2023-07-31T09:49:06;2.70;;;2.08;;
40501;SDS011;29631;49.168;9.848;2023-07-31T09:51:40;3.40;;;2.25;;
40501;SDS011;29631;49.168;9.848;2023-07-31T09:54:11;3.95;;;2.33;;
40501;SDS011;29631;49.168;9.848;2023-07-31T09:56:44;2.42;;;2.15;;
40501;SDS011;29631;49.168;9.848;2023-07-31T09:59:12;2.03;;;1.90;;
40501;SDS011;29631;49.168;9.848;2023-07-31T10:01:43;2.25;;;2.15;;
40501;SDS011;29631;49.168;9.848;2023-07-31T10:04:11;2.80;;;1.98;;
40501;SDS011;29631;49.168;9.848;2023-07-31T10:06:38;2.80;;;2.30;;
40501;SDS011;29631;49.168;9.848;2023-07-31T10:09:08;4.10;;;2.40;;
40501;SDS011;29631;49.168;9.848;2023-07-31T10:11:46;2.83;;;2.10;;
40501;SDS011;29631;49.168;9.848;2023-07-31T10:14:21;2.05;;;1.88;;
40501;SDS011;29631;49.168;9.848;2023-07-31T10:16:48;2.63;;;2.00;;
40501;SDS011;29631;49.168;9.848;2023-07-31T10:19:15;2.03;;;1.90;;
40501;SDS011;29631;49.168;9.848;2023-07-31T10:21:42;2.10;;;1.90;;
40501;SDS011;29631;49.168;9.848;2023-07-31T10:24:10;2.30;;;2.10;;
40501;SDS011;29631;49.168;9.848;2023-07-31T10:26:37;2.30;;;2.10;;
40501;SDS011;29631;49.168;9.848;2023-07-31T10:29:05;4.80;;;1.98;;
40501;SDS011;29631;49.168;9.848;2023-07-31T10:31:31;3.28;;;2.28;;
40501;SDS011;29631;49.168;9.848;2023-07-31T10:33:59;2.30;;;2.10;;
40501;SDS011;29631;49.168;9.848;2023-07-31T10:36:25;1.88;;;1.77;;
40501;SDS011;29631;49.168;9.848;2023-07-31T10:38:52;2.65;;;2.00;;
40501;SDS011;29631;49.168;9.848;2023-07-31T10:41:17;2.78;;;1.80;;
40501;SDS011;29631;49.168;9.848;2023-07-31T10:43:45;2.05;;;1.95;;
40501;SDS011;29631;49.168;9.848;2023-07-31T10:46:12;3.53;;;2.40;;
40501;SDS011;29631;49.168;9.848;2023-07-31T10:48:40;2.60;;;2.40;;
40501;SDS011;29631;49.168;9.848;2023-07-31T10:51:07;3.50;;;2.20;;
40501;SDS011;29631;49.168;9.848;2023-07-31T10:53:37;2.08;;;1.98;;
40501;SDS011;29631;49.168;9.848;2023-07-31T10:56:06;4.38;;;1.90;;
40501;SDS011;29631;49.168;9.848;2023-07-31T10:58:40;2.00;;;1.90;;
40501;SDS011;29631;49.168;9.848;2023-07-31T11:01:09;2.58;;;1.90;;
40501;SDS011;29631;49.168;9.848;2023-07-31T11:03:56;2.05;;;1.90;;
40501;SDS011;29631;49.168;9.848;2023-07-31T11:06:21;2.35;;;2.00;;
40501;SDS011;29631;49.168;9.848;2023-07-31T11:08:48;2.33;;;2.08;;
40501;SDS011;29631;49.168;9.848;2023-07-31T11:11:16;2.25;;;1.60;;
40501;SDS011;29631;49.168;9.848;2023-07-31T11:13:50;2.33;;;2.10;;
40501;SDS011;29631;49.168;9.848;2023-07-31T11:16:18;3.45;;;2.03;;
40501;SDS011;29631;49.168;9.848;2023-07-31T11:18:47;2.00;;;1.90;;
40501;SDS011;29631;49.168;9.848;2023-07-31T11:21:18;2.58;;;1.77;;
40501;SDS011;29631;49.168;9.848;2023-07-31T11:23:49;2.72;;;2.05;;
40501;SDS011;29631;49.168;9.848;2023-07-31T11:26:17;2.60;;;2.28;;
40501;SDS011;29631;49.168;9.848;2023-07-31T11:28:46;2.50;;;2.30;;
40501;SDS011;29631;49.168;9.848;2023-07-31T11:31:12;3.22;;;2.10;;
40501;SDS011;29631;49.168;9.848;2023-07-31T11:33:38;2.45;;;2.30;;
40501;SDS011;29631;49.168;9.848;2023-07-31T11:36:04;8.55;;;2.45;;
40501;SDS011;29631;49.168;9.848;2023-07-31T11:38:31;2.40;;;2.20;;
40501;SDS011;29631;49.168;9.848;2023-07-31T11:40:59;2.53;;;2.33;;
40501;SDS011;29631;49.168;9.848;2023-07-31T11:43:33;2.33;;;2.08;;
40501;SDS011;29631;49.168;9.848;2023-07-31T11:46:01;2.53;;;2.33;;
40501;SDS011;29631;49.168;9.848;2023-07-31T11:48:33;2.25;;;2.00;;
40501;SDS011;29631;49.168;9.848;2023-07-31T11:51:02;3.25;;;2.00;;
40501;SDS011;29631;49.168;9.848;2023-07-31T11:53:31;2.45;;;2.25;;
40501;SDS011;29631;49.168;9.848;2023-07-31T11:56:19;2.60;;;2.38;;
40501;SDS011;29631;49.168;9.848;2023-07-31T11:58:48;2.85;;;2.38;;
40501;SDS011;29631;49.168;9.848;2023-07-31T12:01:22;3.05;;;2.10;;
40501;SDS011;29631;49.168;9.848;2023-07-31T12:03:50;3.75;;;2.10;;
40501;SDS011;29631;49.168;9.848;2023-07-31T12:06:16;2.20;;;2.00;;
40501;SDS011;29631;49.168;9.848;2023-07-31T12:08:42;3.63;;;2.38;;
40501;SDS011;29631;49.168;9.848;2023-07-31T12:11:08;3.55;;;2.25;;
40501;SDS011;29631;49.168;9.848;2023-07-31T12:13:34;2.92;;;2.00;;
40501;SDS011;29631;49.168;9.848;2023-07-31T12:16:01;2.35;;;2.25;;
40501;SDS011;29631;49.168;9.848;2023-07-31T12:18:29;2.42;;;2.22;;
40501;SDS011;29631;49.168;9.848;2023-07-31T12:21:00;2.53;;;2.33;;
40501;SDS011;29631;49.168;9.848;2023-07-31T12:23:29;3.95;;;2.20;;
40501;SDS011;29631;49.168;9.848;2023-07-31T12:26:10;3.00;;;2.40;;
40501;SDS011;29631;49.168;9.848;2023-07-31T12:31:09;3.83;;;2.30;;
40501;SDS011;29631;49.168;9.848;2023-07-31T12:33:40;2.88;;;2.60;;
40501;SDS011;29631;49.168;9.848;2023-07-31T12:36:11;3.05;;;2.03;;
40501;SDS011;29631;49.168;9.848;2023-07-31T12:38:39;2.47;;;2.28;;
40501;SDS011;29631;49.168;9.848;2023-07-31T12:41:06;2.50;;;2.30;;
40501;SDS011;29631;49.168;9.848;2023-07-31T12:43:36;2.60;;;2.40;;
40501;SDS011;29631;49.168;9.848;2023-07-31T12:46:04;2.22;;;2.13;;
40501;SDS011;29631;49.168;9.848;2023-07-31T12:48:30;2.90;;;2.30;;
40501;SDS011;29631;49.168;9.848;2023-07-31T12:50:57;2.30;;;2.15;;
40501;SDS011;29631;49.168;9.848;2023-07-31T12:53:22;2.75;;;2.22;;
40501;SDS011;29631;49.168;9.848;2023-07-31T12:55:48;3.72;;;2.45;;
40501;SDS011;29631;49.168;9.848;2023-07-31T12:58:15;2.58;;;2.38;;
40501;SDS011;29631;49.168;9.848;2023-07-31T13:00:40;2.67;;;2.47;;
40501;SDS011;29631;49.168;9.848;2023-07-31T13:03:06;2.20;;;2.00;;
40501;SDS011;29631;49.168;9.848;2023-07-31T13:05:32;2.90;;;2.60;;
40501;SDS011;29631;49.168;9.848;2023-07-31T13:07:58;2.58;;;2.38;;
40501;SDS011;29631;49.168;9.848;2023-07-31T13:10:23;2.50;;;2.30;;
40501;SDS011;29631;49.168;9.848;2023-07-31T13:12:51;3.03;;;2.33;;
40501;SDS011;29631;49.168;9.848;2023-07-31T13:15:17;2.13;;;1.98;;
40501;SDS011;29631;49.168;9.848;2023-07-31T13:17:43;2.45;;;2.22;;
40501;SDS011;29631;49.168;9.848;2023-07-31T13:20:10;2.70;;;2.38;;
40501;SDS011;29631;49.168;9.848;2023-07-31T13:22:36;2.53;;;2.30;;
40501;SDS011;29631;49.168;9.848;2023-07-31T13:25:02;2.83;;;2.53;;
40501;SDS011;29631;49.168;9.848;2023-07-31T13:27:28;3.60;;;2.30;;
40501;SDS011;29631;49.168;9.848;2023-07-31T13:29:54;2.33;;;2.15;;
40501;SDS011;29631;49.168;9.848;2023-07-31T13:32:20;3.00;;;2.20;;
40501;SDS011;29631;49.168;9.848;2023-07-31T13:34:46;2.60;;;2.40;;
40501;SDS011;29631;49.168;9.848;2023-07-31T13:37:13;3.10;;;2.80;;
40501;SDS011;29631;49.168;9.848;2023-07-31T13:39:39;3.50;;;2.03;;
40501;SDS011;29631;49.168;9.848;2023-07-31T13:42:07;3.35;;;2.70;;
40501;SDS011;29631;49.168;9.848;2023-07-31T13:44:34;2.75;;;2.42;;
40501;SDS011;29631;49.168;9.848;2023-07-31T13:47:00;3.38;;;2.83;;
40501;SDS011;29631;49.168;9.848;2023-07-31T13:49:26;4.50;;;2.30;;
40501;SDS011;29631;49.168;9.848;2023-07-31T13:51:53;3.70;;;2.33;;
40501;SDS011;29631;49.168;9.848;2023-07-31T13:54:18;2.10;;;2.00;;
40501;SDS011;29631;49.168;9.848;2023-07-31T13:56:44;2.65;;;2.45;;
40501;SDS011;29631;49.168;9.848;2023-07-31T13:59:10;2.47;;;2.28;;
40501;SDS011;29631;49.168;9.848;2023-07-31T14:01:36;2.33;;;2.13;;
40501;SDS011;29631;49.168;9.848;2023-07-31T14:04:02;2.55;;;2.35;;
40501;SDS011;29631;49.168;9.848;2023-07-31T14:06:28;2.85;;;2.60;;
40501;SDS011;29631;49.168;9.848;2023-07-31T14:08:54;2.53;;;2.30;;
40501;SDS011;29631;49.168;9.848;2023-07-31T14:11:20;2.83;;;2.63;;
40501;SDS011;29631;49.168;9.848;2023-07-31T14:13:47;5.13;;;2.55;;
40501;SDS011;29631;49.168;9.848;2023-07-31T14:16:13;4.28;;;2.63;;
40501;SDS011;29631;49.168;9.848;2023-07-31T14:18:39;2.90;;;2.60;;
40501;SDS011;29631;49.168;9.848;2023-07-31T14:21:04;3.22;;;2.55;;
40501;SDS011;29631;49.168;9.848;2023-07-31T14:23:30;2.70;;;2.50;;
40501;SDS011;29631;49.168;9.848;2023-07-31T14:25:56;2.58;;;2.38;;
40501;SDS011;29631;49.168;9.848;2023-07-31T14:28:21;2.33;;;2.22;;
40501;SDS011;29631;49.168;9.848;2023-07-31T14:30:47;2.80;;;2.60;;
40501;SDS011;29631;49.168;9.848;2023-07-31T14:33:13;2.78;;;2.58;;
40501;SDS011;29631;49.168;9.848;2023-07-31T14:35:39;2.67;;;2.47;;
40501;SDS011;29631;49.168;9.848;2023-07-31T14:38:04;3.53;;;2.40;;
40501;SDS011;29631;49.168;9.848;2023-07-31T14:40:30;2.85;;;2.55;;
40501;SDS011;29631;49.168;9.848;2023-07-31T14:42:56;3.45;;;2.47;;
40501;SDS011;29631;49.168;9.848;2023-07-31T14:45:22;3.05;;;2.60;;
40501;SDS011;29631;49.168;9.848;2023-07-31T14:47:47;3.03;;;2.40;;
40501;SDS011;29631;49.168;9.848;2023-07-31T14:50:13;2.58;;;2.38;;
40501;SDS011;29631;49.168;9.848;2023-07-31T14:52:39;3.97;;;2.75;;
40501;SDS011;29631;49.168;9.848;2023-07-31T14:55:05;2.33;;;2.15;;
40501;SDS011;29631;49.168;9.848;2023-07-31T14:57:31;2.30;;;2.10;;